Time;durP1;ratioP1;P1;durP2;ratioP2;P2;SDS_P1;SDS_P2;PMS_P1;PMS_P2;Temp;Humidity;BMP_temperature;BMP_pressure;BME280_temperature;BME280_humidity;BME280_pressure;Samples;Min_cycle;Max_cycle;Signal;HPM_P1;HPM_P2
2023/03/11 00:15:23;;;;;;;1999.90;999.90;;;;;;;;;;5996310;22;20281;-71
2023/03/11 00:18:08;;;;;;;1999.90;999.90;;;;;;;;;;4992431;28;20450;-71
2023/03/11 00:20:54;;;;;;;1999.90;999.90;;;;;;;;;;4993136;28;20502;-71
2023/03/11 00:23:39;;;;;;;1999.90;999.90;;;;;;;;;;4992706;28;20219;-69
2023/03/11 00:26:24;;;;;;;1999.90;999.90;;;;;;;;;;4988230;28;20967;-71
2023/03/11 00:29:09;;;;;;;1999.90;999.90;;;;;;;;;;5001792;28;20453;-71
2023/03/11 00:31:55;;;;;;;1999.90;999.90;;;;;;;;;;5004762;28;20425;-70
2023/03/11 00:34:40;;;;;;;1999.90;999.90;;;;;;;;;;4995460;28;20222;-71
2023/03/11 00:37:25;;;;;;;1999.90;999.90;;;;;;;;;;4994038;28;20435;-71
2023/03/11 00:40:12;;;;;;;1999.90;999.90;;;;;;;;;;4993075;28;20427;-69
2023/03/11 00:42:57;;;;;;;1999.90;999.90;;;;;;;;;;4994622;28;20475;-71
2023/03/11 00:45:43;;;;;;;1999.90;999.90;;;;;;;;;;4992646;28;20414;-71
2023/03/11 00:48:29;;;;;;;1999.90;999.90;;;;;;;;;;4995334;28;20251;-68
2023/03/11 00:51:15;;;;;;;1999.90;999.90;;;;;;;;;;4994434;28;20481;-71
2023/03/11 00:54:00;;;;;;;1999.90;999.90;;;;;;;;;;4993215;28;20444;-68
2023/03/11 00:56:45;;;;;;;1999.90;999.90;;;;;;;;;;4994685;28;20992;-72
2023/03/11 00:59:30;;;;;;;1999.90;999.90;;;;;;;;;;4992176;28;20437;-70
2023/03/11 01:02:15;;;;;;;1999.90;999.90;;;;;;;;;;4994237;28;21111;-70
2023/03/11 01:05:01;;;;;;;1999.90;999.90;;;;;;;;;;4994290;28;20481;-71
2023/03/11 01:07:46;;;;;;;1999.90;999.90;;;;;;;;;;4994233;28;20428;-71
2023/03/11 01:10:31;;;;;;;1999.90;999.90;;;;;;;;;;4992779;28;20432;-71
2023/03/11 01:13:16;;;;;;;1999.90;999.90;;;;;;;;;;4993742;28;20944;-71
2023/03/11 01:16:01;;;;;;;1999.90;999.90;;;;;;;;;;4992621;28;20556;-71
2023/03/11 01:18:46;;;;;;;1999.90;999.90;;;;;;;;;;4994017;28;20222;-70
2023/03/11 01:21:32;;;;;;;1999.90;999.90;;;;;;;;;;4992531;28;20427;-70
2023/03/11 01:24:18;;;;;;;1999.90;999.90;;;;;;;;;;4996314;28;20942;-68
2023/03/11 01:27:03;;;;;;;1999.90;999.90;;;;;;;;;;4994026;28;20418;-70
2023/03/11 01:29:48;;;;;;;1999.90;999.90;;;;;;;;;;5000786;28;20569;-70
2023/03/11 01:32:33;;;;;;;1999.90;999.90;;;;;;;;;;4987189;28;20423;-72
2023/03/11 01:35:19;;;;;;;1999.90;999.90;;;;;;;;;;4993800;28;20442;-73
2023/03/11 01:38:05;;;;;;;1999.90;999.90;;;;;;;;;;4994254;28;20433;-73
2023/03/11 01:40:51;;;;;;;1999.90;999.90;;;;;;;;;;5002334;28;20560;-73
2023/03/11 01:43:38;;;;;;;1999.90;999.90;;;;;;;;;;4998928;28;20464;-73
2023/03/11 01:46:24;;;;;;;1999.90;999.90;;;;;;;;;;4993822;28;20526;-72
2023/03/11 01:49:11;;;;;;;1999.90;999.90;;;;;;;;;;4995346;28;20422;-72
2023/03/11 01:51:57;;;;;;;1999.90;999.90;;;;;;;;;;4997757;28;20498;-74
2023/03/11 01:54:43;;;;;;;1999.90;999.90;;;;;;;;;;5002180;28;20786;-73
2023/03/11 01:57:29;;;;;;;1999.90;999.90;;;;;;;;;;4997791;28;20473;-73
2023/03/11 02:00:15;;;;;;;1999.90;999.90;;;;;;;;;;4993812;28;20409;-73
2023/03/11 02:03:02;;;;;;;1999.90;999.90;;;;;;;;;;5001730;28;20219;-72
2023/03/11 02:05:47;;;;;;;1999.90;999.90;;;;;;;;;;4993060;28;20455;-73
2023/03/11 02:08:33;;;;;;;1999.90;999.90;;;;;;;;;;4993635;28;20947;-72
2023/03/11 02:11:22;;;;;;;1999.90;999.90;;;;;;;;;;4993613;28;20428;-73
2023/03/11 02:14:08;;;;;;;1999.90;999.90;;;;;;;;;;4992235;28;20461;-72
2023/03/11 02:16:54;;;;;;;1999.90;999.90;;;;;;;;;;5001422;28;20243;-71
2023/03/11 02:19:50;;;;;;;1999.90;999.90;;;;;;;;;;4992315;28;20464;-72
2023/03/11 02:22:35;;;;;;;1999.90;999.90;;;;;;;;;;4985863;28;20529;-73
2023/03/11 02:25:24;;;;;;;1999.90;999.90;;;;;;;;;;4996546;28;21125;-73
2023/03/11 02:28:12;;;;;;;1999.90;999.90;;;;;;;;;;4999497;28;20414;-72
2023/03/11 02:30:57;;;;;;;1999.90;999.90;;;;;;;;;;4993641;28;20508;-74
2023/03/11 02:33:45;;;;;;;1999.90;999.90;;;;;;;;;;4993821;28;20502;-72
2023/03/11 02:36:32;;;;;;;1999.90;999.90;;;;;;;;;;4993732;28;20451;-73
2023/03/11 02:39:17;;;;;;;1999.90;999.90;;;;;;;;;;5003146;28;20432;-73
2023/03/11 02:42:04;;;;;;;1999.90;999.90;;;;;;;;;;4996195;28;20551;-73
2023/03/11 02:44:54;;;;;;;1999.90;999.90;;;;;;;;;;4997994;28;20427;-72
2023/03/11 02:47:39;;;;;;;1999.90;999.90;;;;;;;;;;4992761;28;20440;-72
2023/03/11 02:50:25;;;;;;;1999.90;999.90;;;;;;;;;;4992882;28;20501;-72
2023/03/11 02:53:10;;;;;;;1999.90;999.90;;;;;;;;;;4992589;28;20542;-72
2023/03/11 02:55:55;;;;;;;1999.90;999.90;;;;;;;;;;4999918;28;20509;-73
2023/03/11 02:58:40;;;;;;;1999.90;999.90;;;;;;;;;;4997701;28;20456;-72
2023/03/11 03:01:26;;;;;;;1999.90;999.90;;;;;;;;;;4996578;28;20451;-72
2023/03/11 03:04:12;;;;;;;1999.90;999.90;;;;;;;;;;4994183;28;20433;-72
2023/03/11 03:06:56;;;;;;;1999.90;999.90;;;;;;;;;;4992012;28;20445;-72
2023/03/11 03:09:41;;;;;;;1999.90;999.90;;;;;;;;;;4988312;28;20428;-73
2023/03/11 03:12:26;;;;;;;1999.90;999.90;;;;;;;;;;4992133;28;20407;-73
2023/03/11 03:15:12;;;;;;;1999.90;999.90;;;;;;;;;;4990347;28;20845;-71
2023/03/11 03:17:59;;;;;;;1999.90;999.90;;;;;;;;;;4990671;28;20962;-71
2023/03/11 03:20:44;;;;;;;1999.90;999.90;;;;;;;;;;4991900;28;20436;-71
2023/03/11 03:23:33;;;;;;;1999.90;999.90;;;;;;;;;;4989189;28;20847;-70
2023/03/11 03:26:18;;;;;;;1999.90;999.90;;;;;;;;;;4992003;28;20448;-72
2023/03/11 03:29:03;;;;;;;1999.90;999.90;;;;;;;;;;4991915;28;20514;-70
2023/03/11 03:31:49;;;;;;;1999.90;999.90;;;;;;;;;;4991781;28;20552;-73
2023/03/11 03:34:35;;;;;;;1999.90;999.90;;;;;;;;;;4992491;28;20510;-71
2023/03/11 03:37:20;;;;;;;1999.90;999.90;;;;;;;;;;4991966;28;20422;-70
2023/03/11 03:40:07;;;;;;;1999.90;999.90;;;;;;;;;;4990559;28;20408;-73
2023/03/11 03:42:52;;;;;;;1999.90;999.90;;;;;;;;;;4987104;28;20227;-72
2023/03/11 03:45:37;;;;;;;1999.90;999.90;;;;;;;;;;4991861;28;20437;-73
2023/03/11 03:48:22;;;;;;;1999.90;999.90;;;;;;;;;;4991822;28;20506;-73
2023/03/11 03:51:09;;;;;;;1999.90;999.90;;;;;;;;;;4992108;28;20427;-73
2023/03/11 03:53:53;;;;;;;1999.90;999.90;;;;;;;;;;4995351;28;20538;-73
2023/03/11 03:56:38;;;;;;;1999.90;999.90;;;;;;;;;;4993237;28;20440;-72
2023/03/11 03:59:23;;;;;;;1999.90;999.90;;;;;;;;;;4992029;28;20431;-72
2023/03/11 04:02:08;;;;;;;1999.90;999.90;;;;;;;;;;4991756;28;20432;-72
2023/03/11 04:04:53;;;;;;;1999.90;999.90;;;;;;;;;;4992123;28;20428;-73
2023/03/11 04:07:40;;;;;;;1999.90;999.90;;;;;;;;;;4991955;28;20419;-71
2023/03/11 04:10:25;;;;;;;1999.90;999.90;;;;;;;;;;4997933;28;20434;-73
2023/03/11 04:13:10;;;;;;;1999.90;999.90;;;;;;;;;;4989843;28;20279;-73
2023/03/11 04:15:55;;;;;;;1999.90;999.90;;;;;;;;;;4989053;28;20491;-70
2023/03/11 04:18:40;;;;;;;1999.90;999.90;;;;;;;;;;4997884;28;21221;-72
2023/03/11 04:21:25;;;;;;;1999.90;999.90;;;;;;;;;;4992698;28;20323;-73
2023/03/11 04:24:11;;;;;;;1999.90;999.90;;;;;;;;;;4991257;28;20467;-73
2023/03/11 04:26:56;;;;;;;1999.90;999.90;;;;;;;;;;5000112;28;20584;-69
2023/03/11 04:29:41;;;;;;;1999.90;999.90;;;;;;;;;;4999263;28;20437;-74
2023/03/11 04:32:26;;;;;;;1999.90;999.90;;;;;;;;;;5001964;28;20472;-73
2023/03/11 04:35:11;;;;;;;1999.90;999.90;;;;;;;;;;4996792;28;20596;-73
2023/03/11 04:37:56;;;;;;;1999.90;999.90;;;;;;;;;;4994825;28;20503;-73
2023/03/11 04:40:43;;;;;;;1999.90;999.90;;;;;;;;;;4995441;28;20538;-73
2023/03/11 04:43:28;;;;;;;1999.90;999.90;;;;;;;;;;4994670;28;20971;-73
2023/03/11 04:46:13;;;;;;;1999.90;999.90;;;;;;;;;;4994596;28;20586;-73
2023/03/11 04:48:58;;;;;;;1999.90;999.90;;;;;;;;;;4994571;28;20545;-72
2023/03/11 04:51:43;;;;;;;1999.90;999.90;;;;;;;;;;4990784;28;20423;-73
2023/03/11 04:54:28;;;;;;;1999.90;999.90;;;;;;;;;;4997186;28;20407;-73
2023/03/11 04:57:14;;;;;;;1999.90;999.90;;;;;;;;;;4992621;28;20447;-73
2023/03/11 04:59:59;;;;;;;1999.90;999.90;;;;;;;;;;4994099;28;20433;-73
2023/03/11 05:02:44;;;;;;;1999.90;999.90;;;;;;;;;;4991493;28;20499;-73
2023/03/11 05:05:29;;;;;;;1999.90;999.90;;;;;;;;;;4992917;28;20879;-72
2023/03/11 05:08:14;;;;;;;1999.90;999.90;;;;;;;;;;4993841;28;20771;-73
2023/03/11 05:10:58;;;;;;;1999.90;999.90;;;;;;;;;;4994187;28;20415;-73
2023/03/11 05:13:45;;;;;;;1999.90;999.90;;;;;;;;;;4994328;28;20417;-73
2023/03/11 05:16:30;;;;;;;1999.90;999.90;;;;;;;;;;4993815;28;20459;-73
2023/03/11 05:19:34;;;;;;;1999.90;999.90;;;;;;;;;;4994142;28;20923;-73
2023/03/11 05:22:19;;;;;;;1999.90;999.90;;;;;;;;;;5002618;28;20417;-73
2023/03/11 05:25:05;;;;;;;1999.90;999.90;;;;;;;;;;5001848;28;20426;-73
2023/03/11 05:27:50;;;;;;;1999.90;999.90;;;;;;;;;;4994847;28;20434;-74
2023/03/11 05:30:36;;;;;;;1999.90;999.90;;;;;;;;;;5002383;28;20996;-71
2023/03/11 05:33:21;;;;;;;1999.90;999.90;;;;;;;;;;5003760;28;20430;-72
2023/03/11 05:36:07;;;;;;;1999.90;999.90;;;;;;;;;;5013135;28;20399;-72
2023/03/11 05:38:53;;;;;;;1999.90;999.90;;;;;;;;;;5013630;28;20209;-73
2023/03/11 05:41:38;;;;;;;1999.90;999.90;;;;;;;;;;5013255;28;20418;-73
2023/03/11 05:44:23;;;;;;;1999.90;999.90;;;;;;;;;;5013640;28;21086;-73
2023/03/11 05:47:10;;;;;;;1999.90;999.90;;;;;;;;;;5013675;28;20438;-73
2023/03/11 05:49:55;;;;;;;1999.90;999.90;;;;;;;;;;5012350;28;20431;-73
2023/03/11 05:52:40;;;;;;;1999.90;999.90;;;;;;;;;;5012380;28;20245;-73
2023/03/11 05:55:25;;;;;;;1999.90;999.90;;;;;;;;;;4993930;28;20479;-72
2023/03/11 05:58:11;;;;;;;1999.90;999.90;;;;;;;;;;4994112;28;20453;-72
2023/03/11 06:00:56;;;;;;;1999.90;999.90;;;;;;;;;;4993863;28;20484;-73
2023/03/11 06:03:42;;;;;;;1999.90;999.90;;;;;;;;;;4994722;28;20850;-73
2023/03/11 06:06:27;;;;;;;1999.90;999.90;;;;;;;;;;4994996;28;20445;-73
2023/03/11 06:09:12;;;;;;;1999.90;999.90;;;;;;;;;;5001576;28;20446;-73
2023/03/11 06:11:57;;;;;;;1999.90;999.90;;;;;;;;;;4993972;28;20951;-73
2023/03/11 06:14:42;;;;;;;1999.90;999.90;;;;;;;;;;4993880;28;20509;-72
2023/03/11 06:17:27;;;;;;;1999.90;999.90;;;;;;;;;;5001458;28;20437;-72
2023/03/11 06:20:13;;;;;;;1999.90;999.90;;;;;;;;;;4993564;28;20495;-73
2023/03/11 06:22:58;;;;;;;1999.90;999.90;;;;;;;;;;4993282;28;20514;-73
2023/03/11 06:25:43;;;;;;;1999.90;999.90;;;;;;;;;;5001373;28;20438;-74
2023/03/11 06:28:28;;;;;;;1999.90;999.90;;;;;;;;;;4992933;28;21026;-73
2023/03/11 06:31:15;;;;;;;1999.90;999.90;;;;;;;;;;4992952;28;21046;-73
2023/03/11 06:34:01;;;;;;;1999.90;999.90;;;;;;;;;;5001484;28;20432;-73
2023/03/11 06:36:47;;;;;;;1999.90;999.90;;;;;;;;;;4989773;28;20593;-73
2023/03/11 06:39:32;;;;;;;1999.90;999.90;;;;;;;;;;4996380;28;20439;-73
2023/03/11 06:42:17;;;;;;;1999.90;999.90;;;;;;;;;;4996187;28;20496;-73
2023/03/11 06:45:02;;;;;;;1999.90;999.90;;;;;;;;;;4992664;28;20487;-72
2023/03/11 06:47:47;;;;;;;1999.90;999.90;;;;;;;;;;4992720;28;20943;-72
2023/03/11 06:50:31;;;;;;;1999.90;999.90;;;;;;;;;;5000801;28;20566;-73
2023/03/11 06:53:18;;;;;;;1999.90;999.90;;;;;;;;;;5000172;28;20477;-74
2023/03/11 06:56:04;;;;;;;1999.90;999.90;;;;;;;;;;4992681;28;20461;-72
2023/03/11 06:58:49;;;;;;;1999.90;999.90;;;;;;;;;;4992620;28;20424;-74
2023/03/11 07:01:34;;;;;;;1999.90;999.90;;;;;;;;;;4994706;28;20487;-73
2023/03/11 07:04:18;;;;;;;1999.90;999.90;;;;;;;;;;4995496;28;20500;-73
2023/03/11 07:07:04;;;;;;;1999.90;999.90;;;;;;;;;;4992569;28;20363;-71
2023/03/11 07:09:50;;;;;;;1999.90;999.90;;;;;;;;;;5000744;28;20207;-73
2023/03/11 07:12:35;;;;;;;1999.90;999.90;;;;;;;;;;5002836;28;20211;-74
2023/03/11 07:15:20;;;;;;;1999.90;999.90;;;;;;;;;;5003180;28;20438;-74
2023/03/11 07:18:05;;;;;;;1999.90;999.90;;;;;;;;;;5012132;28;20202;-73
2023/03/11 07:20:50;;;;;;;1999.90;999.90;;;;;;;;;;5012363;28;20209;-74
2023/03/11 07:23:35;;;;;;;1999.90;999.90;;;;;;;;;;5012337;28;20218;-73
2023/03/11 07:26:22;;;;;;;1999.90;999.90;;;;;;;;;;5012220;28;20350;-73
2023/03/11 07:29:07;;;;;;;1999.90;999.90;;;;;;;;;;4998127;28;20207;-74
2023/03/11 07:31:52;;;;;;;1999.90;999.90;;;;;;;;;;4991709;28;20631;-74
2023/03/11 07:34:36;;;;;;;1999.90;999.90;;;;;;;;;;4992045;28;20821;-74
2023/03/11 07:37:21;;;;;;;1999.90;999.90;;;;;;;;;;4992017;28;20258;-72
2023/03/11 07:40:07;;;;;;;1999.90;999.90;;;;;;;;;;4990631;28;20215;-75
2023/03/11 07:42:54;;;;;;;1999.90;999.90;;;;;;;;;;4991952;28;20724;-73
2023/03/11 07:45:39;;;;;;;1999.90;999.90;;;;;;;;;;4988473;28;20409;-71
2023/03/11 07:48:23;;;;;;;1999.90;999.90;;;;;;;;;;4992141;28;20682;-70
2023/03/11 07:51:10;;;;;;;1999.90;999.90;;;;;;;;;;4992157;28;20212;-74
2023/03/11 07:53:56;;;;;;;1999.90;999.90;;;;;;;;;;4991613;28;20275;-74
2023/03/11 07:56:41;;;;;;;1999.90;999.90;;;;;;;;;;4991825;28;20231;-74
2023/03/11 07:59:28;;;;;;;1999.90;999.90;;;;;;;;;;4991454;28;20443;-74
2023/03/11 08:02:12;;;;;;;1999.90;999.90;;;;;;;;;;4991638;28;20294;-70
2023/03/11 08:04:57;;;;;;;1999.90;999.90;;;;;;;;;;4995200;28;20292;-73
2023/03/11 08:07:42;;;;;;;1999.90;999.90;;;;;;;;;;4995389;28;20285;-74
2023/03/11 08:10:27;;;;;;;1999.90;999.90;;;;;;;;;;4995584;28;20216;-74
2023/03/11 08:13:12;;;;;;;1999.90;999.90;;;;;;;;;;4995488;28;20296;-74
2023/03/11 08:15:58;;;;;;;1999.90;999.90;;;;;;;;;;4995103;28;20229;-71
2023/03/11 08:18:43;;;;;;;1999.90;999.90;;;;;;;;;;4995177;28;20363;-73
2023/03/11 08:21:30;;;;;;;1999.90;999.90;;;;;;;;;;4995460;28;20256;-74
2023/03/11 08:24:15;;;;;;;1999.90;999.90;;;;;;;;;;4995242;28;20735;-74
2023/03/11 08:27:00;;;;;;;1999.90;999.90;;;;;;;;;;4991237;28;20254;-74
2023/03/11 08:29:45;;;;;;;1999.90;999.90;;;;;;;;;;4992684;28;20405;-73
2023/03/11 08:32:32;;;;;;;1999.90;999.90;;;;;;;;;;4993644;28;20227;-74
2023/03/11 08:35:17;;;;;;;1999.90;999.90;;;;;;;;;;4995807;28;20242;-73
2023/03/11 08:38:02;;;;;;;1999.90;999.90;;;;;;;;;;4997046;28;20210;-72
2023/03/11 08:40:47;;;;;;;1999.90;999.90;;;;;;;;;;5002668;28;20219;-73
2023/03/11 08:43:32;;;;;;;1999.90;999.90;;;;;;;;;;4991350;28;20979;-74
2023/03/11 08:46:21;;;;;;;1999.90;999.90;;;;;;;;;;4995905;28;20239;-74
2023/03/11 08:49:07;;;;;;;1999.90;999.90;;;;;;;;;;4999964;28;20214;-74
2023/03/11 08:51:52;;;;;;;1999.90;999.90;;;;;;;;;;4997682;28;20223;-74
2023/03/11 08:54:37;;;;;;;1999.90;999.90;;;;;;;;;;4994259;28;20707;-74
2023/03/11 08:57:21;;;;;;;1999.90;999.90;;;;;;;;;;4994078;28;20274;-73
2023/03/11 09:00:08;;;;;;;1999.90;999.90;;;;;;;;;;4993838;28;20203;-74
2023/03/11 09:02:52;;;;;;;1999.90;999.90;;;;;;;;;;4999680;28;20294;-73
2023/03/11 09:05:39;;;;;;;1999.90;999.90;;;;;;;;;;4998940;28;20343;-74
2023/03/11 09:08:24;;;;;;;1999.90;999.90;;;;;;;;;;4994706;28;20281;-74
2023/03/11 09:11:09;;;;;;;1999.90;999.90;;;;;;;;;;4999645;28;20923;-75
2023/03/11 09:13:54;;;;;;;1999.90;999.90;;;;;;;;;;4993466;28;20200;-75
2023/03/11 09:16:38;;;;;;;1999.90;999.90;;;;;;;;;;4996461;28;20238;-75
2023/03/11 09:19:23;;;;;;;1999.90;999.90;;;;;;;;;;5000410;28;20211;-74
2023/03/11 09:22:10;;;;;;;1999.90;999.90;;;;;;;;;;4993481;28;20207;-74
2023/03/11 09:24:55;;;;;;;1999.90;999.90;;;;;;;;;;5007525;28;20478;-74
2023/03/11 09:27:40;;;;;;;1999.90;999.90;;;;;;;;;;4995496;28;20247;-73
2023/03/11 09:30:25;;;;;;;1999.90;999.90;;;;;;;;;;4999146;28;20203;-73
2023/03/11 09:33:10;;;;;;;1999.90;999.90;;;;;;;;;;4995283;28;20572;-74
2023/03/11 09:35:57;;;;;;;1999.90;999.90;;;;;;;;;;4994057;28;20314;-74
2023/03/11 09:38:43;;;;;;;1999.90;999.90;;;;;;;;;;4994577;28;20641;-75
2023/03/11 09:41:32;;;;;;;1999.90;999.90;;;;;;;;;;4997557;28;20259;-74
2023/03/11 09:44:19;;;;;;;1999.90;999.90;;;;;;;;;;4995667;28;20370;-75
2023/03/11 09:47:23;;;;;;;1999.90;999.90;;;;;;;;;;4996912;28;20243;-75
2023/03/11 09:50:18;;;;;;;1999.90;999.90;;;;;;;;;;5001154;28;20210;-74
2023/03/11 09:53:10;;;;;;;1999.90;999.90;;;;;;;;;;5005391;28;20203;-73
2023/03/11 09:55:58;;;;;;;1999.90;999.90;;;;;;;;;;4992635;28;20215;-75
2023/03/11 09:58:44;;;;;;;1999.90;999.90;;;;;;;;;;4993002;28;20210;-74
2023/03/11 10:01:32;;;;;;;1999.90;999.90;;;;;;;;;;4991317;28;20715;-74
2023/03/11 10:04:20;;;;;;;1999.90;999.90;;;;;;;;;;5004228;28;20434;-74
2023/03/11 10:07:09;;;;;;;1999.90;999.90;;;;;;;;;;5002052;28;20243;-75
2023/03/11 10:09:55;;;;;;;1999.90;999.90;;;;;;;;;;4994343;28;20212;-74
2023/03/11 10:12:48;;;;;;;1999.90;999.90;;;;;;;;;;4991574;28;20211;-74
2023/03/11 10:15:38;;;;;;;1999.90;999.90;;;;;;;;;;5000973;28;20810;-73
2023/03/11 10:18:30;;;;;;;1999.90;999.90;;;;;;;;;;5000046;28;20582;-73
2023/03/11 10:21:19;;;;;;;1999.90;999.90;;;;;;;;;;5002896;28;20570;-72
2023/03/11 10:24:11;;;;;;;1999.90;999.90;;;;;;;;;;4997160;28;20226;-73
2023/03/11 10:26:58;;;;;;;1999.90;999.90;;;;;;;;;;4993427;28;20353;-72
2023/03/11 10:29:51;;;;;;;1999.90;999.90;;;;;;;;;;4994350;28;20211;-72
2023/03/11 10:32:39;;;;;;;1999.90;999.90;;;;;;;;;;4997663;28;20202;-73
2023/03/11 10:35:28;;;;;;;1999.90;999.90;;;;;;;;;;5009688;28;20242;-73
2023/03/11 10:38:15;;;;;;;1999.90;999.90;;;;;;;;;;5009434;28;20282;-71
2023/03/11 10:41:01;;;;;;;1999.90;999.90;;;;;;;;;;4999013;28;20271;-74
2023/03/11 10:43:50;;;;;;;1999.90;999.90;;;;;;;;;;4994964;28;20775;-71
2023/03/11 10:46:36;;;;;;;1999.90;999.90;;;;;;;;;;4991627;28;20242;-72
2023/03/11 10:49:21;;;;;;;1999.90;999.90;;;;;;;;;;5000602;28;20207;-73
2023/03/11 10:52:06;;;;;;;1999.90;999.90;;;;;;;;;;5006625;28;20234;-72
2023/03/11 10:54:59;;;;;;;1999.90;999.90;;;;;;;;;;5007137;28;20207;-73
2023/03/11 10:57:46;;;;;;;1999.90;999.90;;;;;;;;;;4992675;28;20223;-74
2023/03/11 11:00:31;;;;;;;1999.90;999.90;;;;;;;;;;5004174;28;20782;-74
2023/03/11 11:03:20;;;;;;;1999.90;999.90;;;;;;;;;;5009426;28;20214;-74
2023/03/11 11:06:06;;;;;;;1999.90;999.90;;;;;;;;;;4992821;28;20322;-74
2023/03/11 11:09:03;;;;;;;1999.90;999.90;;;;;;;;;;4990902;28;20339;-73
2023/03/11 11:12:00;;;;;;;1999.90;999.90;;;;;;;;;;4994316;28;20207;-75
2023/03/11 11:14:47;;;;;;;1999.90;999.90;;;;;;;;;;4998334;28;20500;-75
2023/03/11 11:17:33;;;;;;;1999.90;999.90;;;;;;;;;;5000855;28;20202;-75
2023/03/11 11:20:19;;;;;;;1999.90;999.90;;;;;;;;;;4992796;28;20212;-74
2023/03/11 11:23:04;;;;;;;1999.90;999.90;;;;;;;;;;4991373;28;20210;-73
2023/03/11 11:25:56;;;;;;;1999.90;999.90;;;;;;;;;;4995474;28;20231;-74
2023/03/11 11:28:41;;;;;;;1999.90;999.90;;;;;;;;;;5004834;28;20531;-74
2023/03/11 11:31:27;;;;;;;1999.90;999.90;;;;;;;;;;5009006;28;20300;-73
2023/03/11 11:34:26;;;;;;;1999.90;999.90;;;;;;;;;;5000154;28;20300;-74
2023/03/11 11:37:13;;;;;;;1999.90;999.90;;;;;;;;;;4991865;28;20226;-74
2023/03/11 11:40:00;;;;;;;1999.90;999.90;;;;;;;;;;5004573;28;20697;-75
2023/03/11 11:42:47;;;;;;;1999.90;999.90;;;;;;;;;;5009021;28;20274;-76
2023/03/11 11:45:37;;;;;;;1999.90;999.90;;;;;;;;;;4996743;28;20349;-77
2023/03/11 11:48:25;;;;;;;1999.90;999.90;;;;;;;;;;5003156;28;20432;-76
2023/03/11 11:51:15;;;;;;;1999.90;999.90;;;;;;;;;;5003833;28;20578;-75
2023/03/11 11:54:06;;;;;;;1999.90;999.90;;;;;;;;;;4998350;28;20281;-75
2023/03/11 11:56:52;;;;;;;1999.90;999.90;;;;;;;;;;4996754;28;20706;-74
2023/03/11 11:59:37;;;;;;;1999.90;999.90;;;;;;;;;;4996622;28;21355;-75
2023/03/11 12:02:30;;;;;;;1999.90;999.90;;;;;;;;;;4999897;28;20857;-75
2023/03/11 12:05:16;;;;;;;1999.90;999.90;;;;;;;;;;5004015;28;20231;-76
2023/03/11 12:08:05;;;;;;;1999.90;999.90;;;;;;;;;;5003753;28;20219;-74
2023/03/11 12:10:54;;;;;;;1999.90;999.90;;;;;;;;;;5001994;28;20206;-74
2023/03/11 12:13:49;;;;;;;1999.90;999.90;;;;;;;;;;4997642;28;20738;-74
2023/03/11 12:16:38;;;;;;;1999.90;999.90;;;;;;;;;;5009963;28;20285;-74
2023/03/11 12:19:29;;;;;;;1999.90;999.90;;;;;;;;;;5006561;28;20206;-75
2023/03/11 12:22:26;;;;;;;1999.90;999.90;;;;;;;;;;5015438;28;20575;-73
2023/03/11 12:25:20;;;;;;;1999.90;999.90;;;;;;;;;;4996370;28;20243;-73
2023/03/11 12:28:15;;;;;;;1999.90;999.90;;;;;;;;;;5009007;28;20504;-74
2023/03/11 12:31:02;;;;;;;1999.90;999.90;;;;;;;;;;5008073;28;20224;-74
2023/03/11 12:33:49;;;;;;;1999.90;999.90;;;;;;;;;;5014948;28;20294;-75
2023/03/11 12:36:36;;;;;;;1999.90;999.90;;;;;;;;;;5011373;28;20373;-75
2023/03/11 12:39:23;;;;;;;1999.90;999.90;;;;;;;;;;4997299;28;20788;-74
2023/03/11 12:42:15;;;;;;;1999.90;999.90;;;;;;;;;;5003544;28;20881;-76
2023/03/11 12:45:21;;;;;;;1999.90;999.90;;;;;;;;;;5014538;28;20222;-75
2023/03/11 12:48:31;;;;;;;1999.90;999.90;;;;;;;;;;4995034;28;20587;-75
2023/03/11 12:51:36;;;;;;;1999.90;999.90;;;;;;;;;;5003717;28;20211;-75
2023/03/11 12:54:27;;;;;;;1999.90;999.90;;;;;;;;;;5002018;28;20211;-75
2023/03/11 12:57:26;;;;;;;1999.90;999.90;;;;;;;;;;4999709;28;20790;-75
2023/03/11 13:00:21;;;;;;;1999.90;999.90;;;;;;;;;;4999048;28;20633;-74
2023/03/11 13:03:24;;;;;;;1999.90;999.90;;;;;;;;;;4999533;28;20702;-74
2023/03/11 13:06:27;;;;;;;1999.90;999.90;;;;;;;;;;4992535;28;20612;-75
2023/03/11 13:09:13;;;;;;;1999.90;999.90;;;;;;;;;;4990886;28;20203;-74
2023/03/11 13:11:59;;;;;;;1999.90;999.90;;;;;;;;;;4993652;28;20223;-75
2023/03/11 13:14:44;;;;;;;1999.90;999.90;;;;;;;;;;4994854;28;20305;-75
2023/03/11 13:17:31;;;;;;;1999.90;999.90;;;;;;;;;;5009786;28;20215;-74
2023/03/11 13:20:31;;;;;;;1999.90;999.90;;;;;;;;;;4997756;28;20210;-74
2023/03/11 13:23:35;;;;;;;1999.90;999.90;;;;;;;;;;4987930;28;20406;-74
2023/03/11 13:26:31;;;;;;;1999.90;999.90;;;;;;;;;;4994583;28;20786;-72
2023/03/11 13:29:35;;;;;;;1999.90;999.90;;;;;;;;;;4999848;28;20587;-74
2023/03/11 13:32:37;;;;;;;1999.90;999.90;;;;;;;;;;5001165;28;20212;-75
2023/03/11 13:35:28;;;;;;;1999.90;999.90;;;;;;;;;;5014306;28;20826;-75
2023/03/11 13:38:20;;;;;;;1999.90;999.90;;;;;;;;;;5013589;28;20314;-74
2023/03/11 13:41:13;;;;;;;1999.90;999.90;;;;;;;;;;5013125;28;20579;-75
2023/03/11 13:44:01;;;;;;;1999.90;999.90;;;;;;;;;;5013978;28;20707;-75
2023/03/11 13:46:48;;;;;;;1999.90;999.90;;;;;;;;;;5013509;28;20246;-75
2023/03/11 13:49:36;;;;;;;1999.90;999.90;;;;;;;;;;5013880;28;20210;-75
2023/03/11 13:52:26;;;;;;;1999.90;999.90;;;;;;;;;;5010165;28;20349;-75
2023/03/11 13:55:18;;;;;;;1999.90;999.90;;;;;;;;;;4986732;28;20227;-75
2023/03/11 13:58:13;;;;;;;1999.90;999.90;;;;;;;;;;4998331;28;20752;-74
2023/03/11 14:00:59;;;;;;;1999.90;999.90;;;;;;;;;;4993089;28;20219;-75
2023/03/11 14:03:45;;;;;;;1999.90;999.90;;;;;;;;;;4993534;28;20493;-75
2023/03/11 14:06:30;;;;;;;1999.90;999.90;;;;;;;;;;4993140;28;20471;-75
2023/03/11 14:09:18;;;;;;;1999.90;999.90;;;;;;;;;;5001036;28;20208;-75
2023/03/11 14:12:06;;;;;;;1999.90;999.90;;;;;;;;;;4998353;28;20216;-75
2023/03/11 14:14:54;;;;;;;1999.90;999.90;;;;;;;;;;5002330;28;20220;-74
2023/03/11 14:17:39;;;;;;;1999.90;999.90;;;;;;;;;;4993501;28;20711;-73
2023/03/11 14:20:25;;;;;;;1999.90;999.90;;;;;;;;;;4999335;28;20208;-75
2023/03/11 14:23:16;;;;;;;1999.90;999.90;;;;;;;;;;4994034;28;20225;-74
2023/03/11 14:26:04;;;;;;;1999.90;999.90;;;;;;;;;;5003851;28;20227;-74
2023/03/11 14:28:50;;;;;;;1999.90;999.90;;;;;;;;;;4995679;28;20258;-74
2023/03/11 14:31:38;;;;;;;1999.90;999.90;;;;;;;;;;4993297;28;20223;-75
2023/03/11 14:34:24;;;;;;;1999.90;999.90;;;;;;;;;;4993277;28;20598;-75
2023/03/11 14:37:22;;;;;;;1999.90;999.90;;;;;;;;;;4996528;28;20593;-75
2023/03/11 14:40:21;;;;;;;1999.90;999.90;;;;;;;;;;5001318;28;20287;-74
2023/03/11 14:43:08;;;;;;;1999.90;999.90;;;;;;;;;;5004148;28;20297;-75
2023/03/11 14:45:53;;;;;;;1999.90;999.90;;;;;;;;;;4994000;28;20438;-75
2023/03/11 14:48:42;;;;;;;1999.90;999.90;;;;;;;;;;4990231;28;20203;-76
2023/03/11 14:51:30;;;;;;;1999.90;999.90;;;;;;;;;;5001029;28;20207;-74
2023/03/11 14:54:17;;;;;;;1999.90;999.90;;;;;;;;;;4991959;28;20216;-75
2023/03/11 14:57:04;;;;;;;1999.90;999.90;;;;;;;;;;5002986;28;20224;-74
2023/03/11 14:59:50;;;;;;;1999.90;999.90;;;;;;;;;;4993923;28;20708;-75
2023/03/11 15:02:42;;;;;;;1999.90;999.90;;;;;;;;;;5003779;28;20333;-75
2023/03/11 15:05:33;;;;;;;1999.90;999.90;;;;;;;;;;4997951;28;20235;-75
2023/03/11 15:08:19;;;;;;;1999.90;999.90;;;;;;;;;;5007186;28;20200;-73
2023/03/11 15:11:06;;;;;;;1999.90;999.90;;;;;;;;;;5012430;28;20214;-75
2023/03/11 15:13:52;;;;;;;1999.90;999.90;;;;;;;;;;4976668;28;20960;-75
2023/03/11 15:16:37;;;;;;;1999.90;999.90;;;;;;;;;;4999465;28;20649;-76
2023/03/11 15:19:23;;;;;;;1999.90;999.90;;;;;;;;;;5012316;28;20203;-75
2023/03/11 15:22:23;;;;;;;1999.90;999.90;;;;;;;;;;4973698;28;20208;-76
2023/03/11 15:25:15;;;;;;;1999.90;999.90;;;;;;;;;;4972983;28;20415;-75
2023/03/11 15:28:13;;;;;;;1999.90;999.90;;;;;;;;;;4973329;28;20207;-75
2023/03/11 15:31:31;;;;;;;1999.90;999.90;;;;;;;;;;4973296;28;20301;-76
2023/03/11 15:34:26;;;;;;;1999.90;999.90;;;;;;;;;;4894724;29;20704;-76
2023/03/11 15:37:20;;;;;;;1999.90;999.90;;;;;;;;;;4894751;29;20743;-76
2023/03/11 15:40:11;;;;;;;1999.90;999.90;;;;;;;;;;4968418;28;20213;-75
2023/03/11 15:43:12;;;;;;;1999.90;999.90;;;;;;;;;;4973358;28;20237;-75
2023/03/11 15:45:58;;;;;;;1999.90;999.90;;;;;;;;;;4972929;28;20245;-75
2023/03/11 15:48:43;;;;;;;1999.90;999.90;;;;;;;;;;4973135;28;20727;-74